Main page
METAR-TAF:

METAR-TAF

Airports :

RAF Odiham

Odiham, England

latitude: 51-14N, longitude: 000-57W, elevation: 123 m

Current weather observation

The report was made 1 hour and 7 minutes ago, at 12:50 UTC
Wind 17 kt from the South/Southeast
Temperature 19°C
Humidity 37%
Pressure 1012 hPa
Visibility 10 km or more

METAR: EGVO 051250Z AUTO 15017KT 9999 NCD 19/04 Q1012

Time: 14:57 (13:57 UTC)


TAF: missing

Weather observations and forecasts of more than 4000 airports (METAR and TAF reports).

The available stations are represented by yellow and red dots on the map.

Hover mouse over dot to see the name of the station.

Then click to see weather observations and forecasts.

To change the map : click on the green buttons with a black cross to zoom in, on the green button with a dash to zoom out, or on the green arrows for adjacent maps.


METAR-TAF: